createdAt,value
2019-02-24T00:00:56.425Z,0.40
2019-02-24T00:03:26.402Z,0.30
2019-02-24T00:05:56.656Z,0.30
2019-02-24T00:08:25.680Z,0.20
2019-02-24T00:10:54.777Z,0.20
2019-02-24T00:13:24.436Z,0.10
2019-02-24T00:15:55.065Z,0.10
2019-02-24T00:18:24.669Z,0.10
2019-02-24T00:20:54.386Z,0.10
2019-02-24T00:23:23.772Z,0.20
2019-02-24T00:25:53.914Z,0.10
2019-02-24T00:28:24.147Z,0.10
2019-02-24T00:30:53.256Z,0.20
2019-02-24T00:33:22.915Z,0.20
2019-02-24T00:35:52.548Z,0.10
2019-02-24T00:38:21.589Z,0.10
2019-02-24T00:40:51.002Z,0.10
2019-02-24T00:43:20.344Z,0.10
2019-02-24T00:45:50.058Z,0.10
2019-02-24T00:48:22.746Z,0.20
2019-02-24T00:50:52.157Z,0.20
2019-02-24T00:53:21.221Z,0.20
2019-02-24T00:55:50.657Z,0.30
2019-02-24T00:58:20.516Z,0.20
2019-02-24T01:00:51.596Z,0.10
2019-02-24T01:03:21.185Z,0.20
2019-02-24T01:05:50.854Z,0.10
2019-02-24T01:08:20.527Z,0.00
2019-02-24T01:10:50.174Z,0.10
2019-02-24T01:13:22.702Z,0.20
2019-02-24T01:15:52.268Z,0.30
2019-02-24T01:18:21.620Z,0.20
2019-02-24T01:20:51.430Z,0.10
2019-02-24T01:23:22.359Z,0.20
2019-02-24T01:25:51.471Z,0.10
2019-02-24T01:28:25.237Z,0.10
2019-02-24T01:30:54.089Z,0.10
2019-02-24T01:33:23.389Z,0.10
2019-02-24T01:35:53.071Z,0.10
2019-02-24T01:38:24.027Z,0.20
2019-02-24T01:40:56.000Z,0.30
2019-02-24T01:43:25.436Z,0.20
2019-02-24T01:45:58.165Z,0.30
2019-02-24T01:48:27.848Z,0.20
2019-02-24T01:50:56.987Z,0.10
2019-02-24T01:53:26.718Z,0.00
2019-02-24T01:55:56.717Z,-0.10
2019-02-24T01:58:34.641Z,-0.10
2019-02-24T02:00:57.468Z,-0.10
2019-02-24T02:03:27.006Z,0.00
2019-02-24T02:05:56.068Z,-0.10
2019-02-24T02:08:25.561Z,-0.10
2019-02-24T02:10:54.837Z,-0.10
2019-02-24T02:13:24.280Z,-0.10
2019-02-24T02:15:53.983Z,-0.20
2019-02-24T02:18:23.219Z,-0.20
2019-02-24T02:20:52.925Z,-0.30
2019-02-24T02:23:22.414Z,-0.30
2019-02-24T02:25:52.022Z,-0.20
2019-02-24T02:28:23.158Z,-0.30
2019-02-24T02:30:52.658Z,-0.30
2019-02-24T02:33:22.166Z,-0.40
2019-02-24T02:35:51.391Z,-0.30
2019-02-24T02:38:20.887Z,-0.30
2019-02-24T02:40:50.289Z,-0.30
2019-02-24T02:43:20.346Z,-0.30
2019-02-24T02:45:53.698Z,-0.40
2019-02-24T02:48:22.527Z,-0.40
2019-02-24T02:50:51.911Z,-0.40
2019-02-24T02:53:21.298Z,-0.50
2019-02-24T02:55:51.031Z,-0.50
2019-02-24T02:58:20.470Z,-0.40
2019-02-24T03:00:49.831Z,-0.40
2019-02-24T03:03:19.092Z,-0.40
2019-02-24T03:06:16.609Z,-0.40
2019-02-24T03:08:47.616Z,-0.40
2019-02-24T03:11:18.489Z,-0.50
2019-02-24T03:13:48.055Z,-0.60
2019-02-24T03:16:23.177Z,-0.60
2019-02-24T03:18:53.297Z,-0.60
2019-02-24T03:21:22.677Z,-0.60
2019-02-24T03:23:52.519Z,-0.70
2019-02-24T03:26:22.128Z,-0.70
2019-02-24T03:28:51.856Z,-0.80
2019-02-24T03:31:20.888Z,-0.80
2019-02-24T03:33:50.527Z,-0.80
2019-02-24T03:36:19.939Z,-0.80
2019-02-24T03:38:49.772Z,-0.70
2019-02-24T03:41:18.891Z,-0.80
2019-02-24T03:43:48.258Z,-0.80
2019-02-24T03:46:17.951Z,-0.70
2019-02-24T03:48:47.494Z,-0.70
2019-02-24T03:51:17.166Z,-0.70
2019-02-24T03:53:46.945Z,-0.70
2019-02-24T03:56:17.776Z,-0.70
2019-02-24T03:58:47.473Z,-0.80
2019-02-24T04:01:16.698Z,-0.70
2019-02-24T04:03:46.066Z,-0.80
2019-02-24T04:06:15.228Z,-0.80
2019-02-24T04:08:44.568Z,-0.80
2019-02-24T04:11:15.201Z,-0.80
2019-02-24T04:13:44.774Z,-0.80
2019-02-24T04:16:14.335Z,-0.80
2019-02-24T04:18:45.283Z,-0.80
2019-02-24T04:21:14.313Z,-0.80
2019-02-24T04:23:44.368Z,-0.80
2019-02-24T04:26:14.147Z,-0.80
2019-02-24T04:28:43.533Z,-0.70
2019-02-24T04:31:13.028Z,-0.60
2019-02-24T04:33:42.758Z,-0.60
2019-02-24T04:36:12.302Z,-0.60
2019-02-24T04:38:41.691Z,-0.70
2019-02-24T04:41:11.036Z,-0.80
2019-02-24T04:43:41.053Z,-0.70
2019-02-24T04:46:10.866Z,-0.80
2019-02-24T04:48:40.432Z,-0.80
2019-02-24T04:51:09.765Z,-0.90
2019-02-24T04:53:39.061Z,-0.80
2019-02-24T04:56:09.090Z,-0.80
2019-02-24T04:58:38.455Z,-0.70
2019-02-24T05:01:07.514Z,-0.70
2019-02-24T05:03:36.756Z,-0.70
2019-02-24T05:06:06.245Z,-0.80
2019-02-24T05:08:36.226Z,-0.80
2019-02-24T05:11:05.716Z,-0.90
2019-02-24T05:13:34.699Z,-0.90
2019-02-24T05:16:04.377Z,-0.90
2019-02-24T05:18:33.693Z,-1.00
2019-02-24T05:21:03.068Z,-1.00
2019-02-24T05:23:32.514Z,-1.10
2019-02-24T05:26:01.884Z,-1.10
2019-02-24T05:28:31.328Z,-1.10
2019-02-24T05:31:01.290Z,-1.00
2019-02-24T05:33:30.620Z,-1.00
2019-02-24T05:36:00.918Z,-1.10
2019-02-24T05:38:31.029Z,-1.00
2019-02-24T05:41:02.234Z,-1.20
2019-02-24T05:43:32.602Z,-1.20
2019-02-24T05:46:02.467Z,-1.20
2019-02-24T05:48:33.684Z,-1.20
2019-02-24T05:51:04.616Z,-1.20
2019-02-24T05:53:34.250Z,-1.30
2019-02-24T05:56:03.966Z,-1.20
2019-02-24T05:58:33.672Z,-1.20
2019-02-24T06:01:03.049Z,-1.30
2019-02-24T06:03:32.955Z,-1.30
2019-02-24T06:06:02.518Z,-1.30
2019-02-24T06:08:32.399Z,-1.20
2019-02-24T06:11:03.791Z,-1.20
2019-02-24T06:13:35.587Z,-1.20
2019-02-24T06:16:06.695Z,-1.10
2019-02-24T06:18:36.463Z,-1.00
2019-02-24T06:21:07.962Z,-1.00
2019-02-24T06:23:37.711Z,-1.00
2019-02-24T06:26:07.526Z,-0.90
2019-02-24T06:28:37.059Z,-0.90
2019-02-24T06:31:06.714Z,-0.90
2019-02-24T06:33:36.315Z,-0.90
2019-02-24T06:36:06.262Z,-0.80
2019-02-24T06:38:36.253Z,-0.80
2019-02-24T06:41:06.232Z,-0.90
2019-02-24T06:43:38.270Z,-0.90
2019-02-24T06:46:07.419Z,-0.80
2019-02-24T06:48:37.482Z,-0.80
2019-02-24T06:51:10.495Z,-0.80
2019-02-24T06:53:39.947Z,-0.70
2019-02-24T06:56:11.045Z,-0.80
2019-02-24T06:58:40.148Z,-0.80
2019-02-24T07:01:09.520Z,-0.80
2019-02-24T07:03:39.736Z,-0.90
2019-02-24T07:06:08.856Z,-0.80
2019-02-24T07:08:38.521Z,-0.70
2019-02-24T07:11:07.817Z,-0.70
2019-02-24T07:13:39.539Z,-0.80
2019-02-24T07:16:10.765Z,-0.70
2019-02-24T07:18:40.382Z,-0.70
2019-02-24T07:21:11.590Z,-0.70
2019-02-24T07:23:43.037Z,-0.70
2019-02-24T07:26:17.433Z,-0.70
2019-02-24T07:28:47.329Z,-0.70
2019-02-24T07:31:16.677Z,-0.70
2019-02-24T07:33:46.273Z,-0.70
2019-02-24T07:36:15.476Z,-0.60
2019-02-24T07:38:45.054Z,-0.60
2019-02-24T07:41:14.023Z,-0.60
2019-02-24T07:43:43.090Z,-0.50
2019-02-24T07:46:12.837Z,-0.40
2019-02-24T07:48:42.199Z,-0.40
2019-02-24T07:51:12.439Z,-0.30
2019-02-24T07:53:42.383Z,-0.30
2019-02-24T07:56:11.493Z,-0.30
2019-02-24T07:58:41.206Z,-0.20
2019-02-24T08:01:10.318Z,-0.10
2019-02-24T08:03:39.749Z,0.00
2019-02-24T08:06:09.183Z,0.10
2019-02-24T08:08:38.932Z,0.10
2019-02-24T08:11:08.250Z,0.10
2019-02-24T08:13:40.129Z,0.20
2019-02-24T08:16:09.119Z,0.40
2019-02-24T08:18:38.201Z,0.40
2019-02-24T08:21:07.689Z,0.70
2019-02-24T08:23:37.619Z,0.90
2019-02-24T08:26:07.578Z,1.20
2019-02-24T08:28:38.989Z,1.60
2019-02-24T08:31:09.207Z,2.00
2019-02-24T08:33:41.835Z,2.40
2019-02-24T08:36:11.847Z,2.60
2019-02-24T08:38:41.034Z,2.90
2019-02-24T08:41:10.753Z,3.10
2019-02-24T08:43:40.132Z,3.70
2019-02-24T08:46:09.117Z,4.30
2019-02-24T08:48:38.484Z,4.80
2019-02-24T08:51:07.720Z,5.20
2019-02-24T08:53:37.014Z,5.60
2019-02-24T08:56:06.098Z,6.10
2019-02-24T08:58:35.997Z,6.20
2019-02-24T09:01:08.085Z,6.00
2019-02-24T09:03:40.103Z,6.60
2019-02-24T09:06:09.790Z,7.00
2019-02-24T09:08:45.050Z,7.00
2019-02-24T09:11:14.882Z,7.40
2019-02-24T09:13:44.016Z,7.60
2019-02-24T09:16:13.104Z,8.20
2019-02-24T09:18:42.515Z,8.30
2019-02-24T09:21:11.641Z,8.10
2019-02-24T09:23:45.760Z,7.80
2019-02-24T09:26:15.726Z,6.60
2019-02-24T09:28:45.334Z,6.10
2019-02-24T09:31:17.245Z,5.70
2019-02-24T09:33:47.321Z,6.20
2019-02-24T09:36:17.368Z,6.70
2019-02-24T09:38:49.415Z,7.00
2019-02-24T09:41:19.024Z,7.60
2019-02-24T09:43:48.944Z,8.70
2019-02-24T09:46:18.338Z,9.30
2019-02-24T09:48:48.044Z,9.80
2019-02-24T09:51:17.846Z,10.40
2019-02-24T09:54:20.681Z,10.20
2019-02-24T09:57:25.585Z,10.50
2019-02-24T10:00:12.569Z,10.40
2019-02-24T10:02:43.470Z,10.40
2019-02-24T10:05:12.624Z,10.80
2019-02-24T10:07:42.215Z,11.80
2019-02-24T10:10:11.613Z,12.80
2019-02-24T10:12:40.347Z,12.00
2019-02-24T10:15:08.676Z,11.70
2019-02-24T10:17:58.060Z,11.20
2019-02-24T10:20:27.156Z,11.00
2019-02-24T10:22:56.973Z,10.20
2019-02-24T10:25:26.275Z,10.30
2019-02-24T10:27:56.263Z,10.60
2019-02-24T10:30:25.832Z,10.10
2019-02-24T10:32:55.230Z,10.20
2019-02-24T10:35:24.603Z,9.60
2019-02-24T10:37:54.362Z,9.00
2019-02-24T10:40:23.774Z,9.20
2019-02-24T10:42:53.885Z,9.30
2019-02-24T10:45:23.585Z,8.90
2019-02-24T10:47:54.086Z,8.70
2019-02-24T10:50:23.486Z,8.60
2019-02-24T10:52:53.131Z,8.50
2019-02-24T10:55:22.270Z,7.90
2019-02-24T10:57:51.432Z,7.40
2019-02-24T11:00:21.036Z,7.20
2019-02-24T11:02:50.555Z,7.20
2019-02-24T11:05:20.271Z,7.20
2019-02-24T11:07:50.412Z,6.70
2019-02-24T11:10:20.532Z,6.40
2019-02-24T11:12:52.172Z,6.70
2019-02-24T11:15:21.603Z,7.00
2019-02-24T11:17:51.122Z,6.90
2019-02-24T11:20:20.591Z,6.70
2019-02-24T11:22:49.883Z,6.80
2019-02-24T11:25:20.226Z,6.70
2019-02-24T11:27:59.213Z,6.70
2019-02-24T11:30:29.849Z,6.70
2019-02-24T11:33:06.083Z,6.80
2019-02-24T11:35:35.677Z,6.70
2019-02-24T11:38:07.028Z,6.50
2019-02-24T11:40:36.954Z,6.60
2019-02-24T11:43:12.489Z,6.70
2019-02-24T11:45:42.585Z,6.70
2019-02-24T11:48:14.688Z,6.80
2019-02-24T11:50:44.340Z,7.00
2019-02-24T11:53:15.055Z,7.30
2019-02-24T11:55:44.549Z,7.20
2019-02-24T11:58:13.838Z,7.20
2019-02-24T12:00:43.800Z,7.20
2019-02-24T12:03:12.849Z,7.30
2019-02-24T12:05:46.296Z,7.20
2019-02-24T12:08:15.695Z,7.00
2019-02-24T12:10:45.027Z,7.10
2019-02-24T12:13:14.360Z,7.20
2019-02-24T12:15:45.514Z,7.10
2019-02-24T12:18:14.953Z,7.10
2019-02-24T12:20:44.852Z,6.90
2019-02-24T12:23:14.372Z,6.60
2019-02-24T12:25:43.519Z,6.70
2019-02-24T12:28:13.387Z,6.70
2019-02-24T12:30:43.482Z,7.00
2019-02-24T12:33:12.958Z,7.00
2019-02-24T12:35:42.394Z,7.10
2019-02-24T12:38:11.861Z,7.20
2019-02-24T12:40:41.702Z,7.40
2019-02-24T12:43:11.199Z,7.60
2019-02-24T12:45:40.662Z,7.50
2019-02-24T12:48:10.500Z,7.20
2019-02-24T12:50:40.517Z,6.90
2019-02-24T12:53:12.479Z,7.00
2019-02-24T12:55:43.430Z,7.00
2019-02-24T12:58:13.492Z,7.10
2019-02-24T13:00:43.178Z,6.80
2019-02-24T13:03:12.525Z,6.70
2019-02-24T13:05:42.069Z,7.00
2019-02-24T13:08:11.114Z,7.20
2019-02-24T13:10:42.199Z,7.20
2019-02-24T13:13:13.933Z,7.30
2019-02-24T13:15:44.606Z,7.20
2019-02-24T13:18:14.348Z,7.20
2019-02-24T13:20:49.007Z,7.10
2019-02-24T13:23:18.634Z,7.00
2019-02-24T13:25:48.376Z,7.20
2019-02-24T13:28:17.958Z,7.40
2019-02-24T13:30:47.871Z,7.40
2019-02-24T13:33:16.884Z,7.40
2019-02-24T13:35:46.329Z,7.20
2019-02-24T13:38:17.927Z,7.30
2019-02-24T13:40:48.077Z,7.20
2019-02-24T13:43:17.254Z,7.10
2019-02-24T13:45:46.646Z,7.00
2019-02-24T13:48:16.108Z,6.90
2019-02-24T13:50:46.005Z,6.90
2019-02-24T13:53:16.012Z,6.80
2019-02-24T13:55:45.301Z,6.60
2019-02-24T13:58:14.488Z,6.70
2019-02-24T14:00:43.909Z,6.70
2019-02-24T14:03:13.574Z,6.60
2019-02-24T14:05:43.248Z,6.50
2019-02-24T14:08:13.977Z,6.50
2019-02-24T14:10:43.181Z,6.60
2019-02-24T14:13:12.873Z,6.70
2019-02-24T14:15:41.990Z,6.60
2019-02-24T14:18:12.661Z,6.50
2019-02-24T14:20:42.056Z,6.40
2019-02-24T14:23:11.456Z,6.40
2019-02-24T14:25:40.799Z,6.40
2019-02-24T14:28:10.126Z,6.30
2019-02-24T14:30:40.120Z,6.30
2019-02-24T14:33:09.886Z,6.50
2019-02-24T14:35:39.877Z,6.60
2019-02-24T14:38:09.292Z,6.50
2019-02-24T14:40:39.177Z,6.50
2019-02-24T14:43:10.819Z,6.40
2019-02-24T14:45:49.291Z,6.20
2019-02-24T14:48:13.090Z,6.30
2019-02-24T14:50:43.808Z,6.30
2019-02-24T14:53:13.121Z,6.40
2019-02-24T14:55:43.135Z,6.40
2019-02-24T14:58:15.258Z,6.40
2019-02-24T15:00:44.706Z,6.40
2019-02-24T15:03:15.633Z,6.40
2019-02-24T15:05:45.857Z,6.40
2019-02-24T15:08:18.494Z,6.40
2019-02-24T15:10:49.991Z,6.40
2019-02-24T15:13:20.069Z,6.50
2019-02-24T15:15:50.195Z,6.50
2019-02-24T15:18:21.885Z,6.50
2019-02-24T15:20:52.031Z,6.40
2019-02-24T15:23:21.758Z,6.50
2019-02-24T15:25:51.461Z,6.50
2019-02-24T15:28:20.540Z,6.50
2019-02-24T15:30:51.171Z,6.50
2019-02-24T15:33:20.267Z,6.50
2019-02-24T15:35:49.775Z,6.50
2019-02-24T15:38:19.605Z,6.40
2019-02-24T15:40:49.007Z,6.40
2019-02-24T15:43:18.459Z,6.40
2019-02-24T15:45:47.836Z,6.40
2019-02-24T15:48:16.971Z,6.40
2019-02-24T15:50:46.302Z,6.40
2019-02-24T15:53:15.508Z,6.40
2019-02-24T15:55:45.592Z,6.30
2019-02-24T15:58:15.002Z,6.30
2019-02-24T16:00:44.733Z,6.30
2019-02-24T16:03:14.782Z,6.30
2019-02-24T16:05:44.163Z,6.30
2019-02-24T16:08:13.837Z,6.30
2019-02-24T16:10:43.234Z,6.20
2019-02-24T16:13:17.042Z,6.20
2019-02-24T16:15:43.413Z,6.20
2019-02-24T16:18:14.976Z,6.20
2019-02-24T16:20:44.683Z,6.20
2019-02-24T16:23:15.154Z,6.10
2019-02-24T16:25:45.469Z,6.10
2019-02-24T16:28:16.458Z,6.10
2019-02-24T16:30:45.845Z,6.10
2019-02-24T16:33:15.836Z,6.10
2019-02-24T16:35:46.589Z,6.10
2019-02-24T16:38:16.725Z,6.10
2019-02-24T16:40:45.869Z,6.10
2019-02-24T16:43:15.353Z,6.10
2019-02-24T16:45:44.515Z,6.00
2019-02-24T16:48:14.667Z,5.90
2019-02-24T16:50:45.088Z,5.90
2019-02-24T16:53:14.754Z,5.90
2019-02-24T16:55:44.246Z,5.80
2019-02-24T16:58:13.993Z,5.80
2019-02-24T17:00:43.938Z,5.80
2019-02-24T17:03:19.872Z,5.70
2019-02-24T17:05:45.324Z,5.70
2019-02-24T17:08:14.957Z,5.60
2019-02-24T17:10:46.249Z,5.60
2019-02-24T17:13:23.047Z,5.60
2019-02-24T17:15:53.124Z,5.60
2019-02-24T17:18:29.570Z,5.50
2019-02-24T17:20:59.082Z,5.50
2019-02-24T17:23:29.433Z,5.50
2019-02-24T17:26:00.469Z,5.40
2019-02-24T17:28:29.869Z,5.40
2019-02-24T17:30:59.535Z,5.40
2019-02-24T17:33:30.259Z,5.30
2019-02-24T17:35:59.912Z,5.30
2019-02-24T17:38:29.367Z,5.30
2019-02-24T17:40:59.511Z,5.30
2019-02-24T17:43:29.108Z,5.20
2019-02-24T17:45:58.907Z,5.20
2019-02-24T17:48:30.395Z,5.20
2019-02-24T17:51:00.389Z,5.20
2019-02-24T17:53:30.128Z,5.10
2019-02-24T17:55:59.857Z,5.10
2019-02-24T17:58:29.789Z,5.10
2019-02-24T18:01:01.233Z,5.00
2019-02-24T18:03:39.106Z,5.10
2019-02-24T18:06:01.968Z,5.00
2019-02-24T18:08:41.671Z,5.00
2019-02-24T18:11:12.904Z,5.00
2019-02-24T18:13:42.471Z,5.00
2019-02-24T18:16:11.644Z,4.90
2019-02-24T18:18:42.492Z,4.90
2019-02-24T18:21:12.732Z,4.90
2019-02-24T18:23:42.756Z,4.90
2019-02-24T18:26:12.665Z,4.80
2019-02-24T18:28:42.380Z,4.70
2019-02-24T18:31:12.331Z,4.70
2019-02-24T18:33:48.178Z,4.70
2019-02-24T18:36:13.592Z,4.60
2019-02-24T18:38:43.046Z,4.60
2019-02-24T18:41:16.147Z,4.70
2019-02-24T18:43:46.162Z,4.70
2019-02-24T18:46:16.115Z,4.70
2019-02-24T18:48:50.298Z,4.70
2019-02-24T18:51:19.416Z,4.60
2019-02-24T18:53:49.530Z,4.60
2019-02-24T18:56:18.995Z,4.50
2019-02-24T18:58:48.534Z,4.50
2019-02-24T19:01:19.371Z,4.40
2019-02-24T19:03:57.402Z,4.30
2019-02-24T19:06:28.540Z,4.30
2019-02-24T19:08:58.466Z,4.30
2019-02-24T19:11:27.848Z,4.20
2019-02-24T19:13:57.820Z,4.30
2019-02-24T19:16:27.734Z,4.30
2019-02-24T19:18:57.807Z,4.30
2019-02-24T19:22:03.896Z,4.30
2019-02-24T19:24:37.265Z,4.30
2019-02-24T19:27:10.036Z,4.20
2019-02-24T19:29:43.919Z,4.20
2019-02-24T19:32:13.068Z,4.20
2019-02-24T19:34:42.851Z,4.20
2019-02-24T19:37:13.823Z,4.20
2019-02-24T19:39:44.547Z,4.30
2019-02-24T19:42:14.824Z,4.30
2019-02-24T19:44:49.781Z,4.20
2019-02-24T19:47:25.528Z,4.20
2019-02-24T19:49:56.040Z,4.10
2019-02-24T19:52:26.175Z,4.20
2019-02-24T19:54:56.100Z,4.20
2019-02-24T19:57:25.198Z,4.10
2019-02-24T19:59:57.281Z,4.00
2019-02-24T20:02:26.956Z,4.00
2019-02-24T20:04:56.496Z,4.00
2019-02-24T20:07:26.169Z,4.10
2019-02-24T20:09:56.215Z,4.10
2019-02-24T20:12:26.105Z,4.10
2019-02-24T20:14:55.553Z,4.10
2019-02-24T20:17:25.961Z,4.20
2019-02-24T20:19:55.575Z,4.20
2019-02-24T20:22:25.188Z,4.10
2019-02-24T20:24:54.733Z,4.10
2019-02-24T20:27:25.052Z,4.10
2019-02-24T20:29:54.901Z,4.00
2019-02-24T20:32:25.388Z,4.10
2019-02-24T20:34:55.069Z,4.10
2019-02-24T20:37:24.277Z,4.00
2019-02-24T20:39:53.410Z,4.10
2019-02-24T20:42:25.847Z,4.00
2019-02-24T20:44:55.504Z,4.00
2019-02-24T20:47:24.711Z,3.90
2019-02-24T20:49:54.812Z,4.00
2019-02-24T20:52:26.405Z,4.00
2019-02-24T20:54:56.852Z,3.90
2019-02-24T20:57:28.028Z,3.80
2019-02-24T20:59:58.689Z,3.80
2019-02-24T21:02:28.023Z,3.80
2019-02-24T21:04:57.426Z,3.80
2019-02-24T21:07:26.806Z,3.80
2019-02-24T21:09:57.435Z,3.80
2019-02-24T21:12:30.060Z,3.70
2019-02-24T21:15:01.377Z,3.70
2019-02-24T21:17:35.298Z,3.70
2019-02-24T21:20:07.022Z,3.80
2019-02-24T21:22:37.807Z,3.70
2019-02-24T21:25:07.537Z,3.80
2019-02-24T21:27:37.742Z,3.80
2019-02-24T21:30:07.227Z,3.80
2019-02-24T21:32:38.118Z,3.70
2019-02-24T21:35:07.797Z,3.70
2019-02-24T21:37:37.924Z,3.70
2019-02-24T21:40:08.001Z,3.70
2019-02-24T21:42:37.568Z,3.60
2019-02-24T21:45:08.880Z,3.60
2019-02-24T21:47:38.450Z,3.60
2019-02-24T21:50:08.292Z,3.70
2019-02-24T21:52:38.385Z,3.70
2019-02-24T21:55:11.459Z,3.70
2019-02-24T21:57:40.742Z,3.70
2019-02-24T22:00:15.357Z,3.60
2019-02-24T22:02:44.934Z,3.70
2019-02-24T22:05:14.914Z,3.70
2019-02-24T22:07:44.210Z,3.70
2019-02-24T22:10:13.904Z,3.70
2019-02-24T22:12:48.650Z,3.80
2019-02-24T22:15:18.566Z,3.80
2019-02-24T22:17:48.681Z,3.70
2019-02-24T22:20:18.356Z,3.60
2019-02-24T22:22:52.145Z,3.50
2019-02-24T22:25:22.148Z,3.50
2019-02-24T22:27:51.789Z,3.50
2019-02-24T22:30:21.216Z,3.50
2019-02-24T22:32:52.797Z,3.60
2019-02-24T22:35:26.671Z,3.60
2019-02-24T22:37:56.410Z,3.50
2019-02-24T22:40:25.640Z,3.50
2019-02-24T22:42:55.017Z,3.50
2019-02-24T22:45:24.603Z,3.60
2019-02-24T22:47:58.489Z,3.60
2019-02-24T22:50:30.461Z,3.60
2019-02-24T22:52:59.937Z,3.70
2019-02-24T22:55:29.699Z,3.60
2019-02-24T22:57:59.431Z,3.50
2019-02-24T23:00:54.807Z,3.50
2019-02-24T23:03:25.226Z,3.60
2019-02-24T23:05:54.367Z,3.50
2019-02-24T23:08:24.021Z,3.50
2019-02-24T23:10:53.667Z,3.50
2019-02-24T23:13:23.963Z,3.50
2019-02-24T23:15:56.290Z,3.50
2019-02-24T23:18:25.749Z,3.40
2019-02-24T23:20:56.185Z,3.40
2019-02-24T23:23:25.880Z,3.50
2019-02-24T23:26:02.008Z,3.50
2019-02-24T23:28:31.385Z,3.50
2019-02-24T23:31:00.462Z,3.50
2019-02-24T23:33:30.987Z,3.40
2019-02-24T23:36:03.960Z,3.50
2019-02-24T23:38:33.024Z,3.40
2019-02-24T23:41:03.171Z,3.30
2019-02-24T23:43:32.729Z,3.30
2019-02-24T23:46:01.993Z,3.30
2019-02-24T23:48:31.268Z,3.30
2019-02-24T23:51:00.519Z,3.20
2019-02-24T23:53:34.413Z,3.20
2019-02-24T23:56:04.159Z,3.20
2019-02-24T23:58:36.730Z,3.10
